sensor_id;sensor_type;location;lat;lon;timestamp;P1;durP1;ratioP1;P2;durP2;ratioP2
15643;SDS011;7921;43.586;1.408;2022-09-21T00:01:18;3.77;;;1.10;;
15643;SDS011;7921;43.586;1.408;2022-09-21T00:03:52;1.40;;;1.30;;
15643;SDS011;7921;43.586;1.408;2022-09-21T00:06:18;6.70;;;1.10;;
15643;SDS011;7921;43.586;1.408;2022-09-21T00:08:45;2.93;;;1.10;;
15643;SDS011;7921;43.586;1.408;2022-09-21T00:11:12;5.10;;;1.20;;
15643;SDS011;7921;43.586;1.408;2022-09-21T00:13:39;1.20;;;1.10;;
15643;SDS011;7921;43.586;1.408;2022-09-21T00:16:05;2.43;;;1.00;;
15643;SDS011;7921;43.586;1.408;2022-09-21T00:18:31;2.23;;;1.10;;
15643;SDS011;7921;43.586;1.408;2022-09-21T00:20:57;2.67;;;1.00;;
15643;SDS011;7921;43.586;1.408;2022-09-21T00:23:22;6.00;;;1.20;;
15643;SDS011;7921;43.586;1.408;2022-09-21T00:25:48;5.57;;;1.10;;
15643;SDS011;7921;43.586;1.408;2022-09-21T00:28:13;1.60;;;1.10;;
15643;SDS011;7921;43.586;1.408;2022-09-21T00:30:38;2.13;;;1.20;;
15643;SDS011;7921;43.586;1.408;2022-09-21T00:33:04;1.43;;;1.10;;
15643;SDS011;7921;43.586;1.408;2022-09-21T00:35:29;3.17;;;1.03;;
15643;SDS011;7921;43.586;1.408;2022-09-21T00:37:58;5.37;;;1.67;;
15643;SDS011;7921;43.586;1.408;2022-09-21T00:40:24;2.63;;;1.30;;
15643;SDS011;7921;43.586;1.408;2022-09-21T00:42:50;1.53;;;1.10;;
15643;SDS011;7921;43.586;1.408;2022-09-21T00:45:15;2.47;;;1.23;;
15643;SDS011;7921;43.586;1.408;2022-09-21T00:47:48;2.63;;;1.30;;
15643;SDS011;7921;43.586;1.408;2022-09-21T00:50:16;3.87;;;1.00;;
15643;SDS011;7921;43.586;1.408;2022-09-21T00:52:44;1.70;;;1.10;;
15643;SDS011;7921;43.586;1.408;2022-09-21T00:58:00;5.00;;;1.40;;
15643;SDS011;7921;43.586;1.408;2022-09-21T01:00:37;1.50;;;1.20;;
15643;SDS011;7921;43.586;1.408;2022-09-21T01:03:04;1.50;;;1.10;;
15643;SDS011;7921;43.586;1.408;2022-09-21T01:05:30;2.03;;;1.50;;
15643;SDS011;7921;43.586;1.408;2022-09-21T01:07:56;1.37;;;1.00;;
15643;SDS011;7921;43.586;1.408;2022-09-21T01:10:26;3.83;;;1.20;;
15643;SDS011;7921;43.586;1.408;2022-09-21T01:37:02;2.00;;;1.30;;
15643;SDS011;7921;43.586;1.408;2022-09-21T01:39:32;2.07;;;1.40;;
15643;SDS011;7921;43.586;1.408;2022-09-21T01:41:59;2.50;;;1.10;;
15643;SDS011;7921;43.586;1.408;2022-09-21T01:44:27;3.43;;;1.70;;
15643;SDS011;7921;43.586;1.408;2022-09-21T01:46:58;2.43;;;1.10;;
15643;SDS011;7921;43.586;1.408;2022-09-21T01:49:35;4.37;;;1.20;;
15643;SDS011;7921;43.586;1.408;2022-09-21T01:52:07;1.83;;;1.40;;
15643;SDS011;7921;43.586;1.408;2022-09-21T01:54:59;3.90;;;1.60;;
15643;SDS011;7921;43.586;1.408;2022-09-21T01:57:39;3.27;;;1.30;;
15643;SDS011;7921;43.586;1.408;2022-09-21T02:00:20;2.13;;;1.30;;
15643;SDS011;7921;43.586;1.408;2022-09-21T02:03:00;3.25;;;1.45;;
15643;SDS011;7921;43.586;1.408;2022-09-21T02:05:29;2.50;;;1.27;;
15643;SDS011;7921;43.586;1.408;2022-09-21T02:07:55;1.43;;;1.20;;
15643;SDS011;7921;43.586;1.408;2022-09-21T02:11:05;1.43;;;1.00;;
15643;SDS011;7921;43.586;1.408;2022-09-21T02:13:14;2.17;;;1.20;;
15643;SDS011;7921;43.586;1.408;2022-09-21T02:18:13;5.87;;;1.43;;
15643;SDS011;7921;43.586;1.408;2022-09-21T02:20:50;1.47;;;1.30;;
15643;SDS011;7921;43.586;1.408;2022-09-21T02:23:21;3.47;;;1.37;;
15643;SDS011;7921;43.586;1.408;2022-09-21T02:26:04;3.70;;;1.40;;
15643;SDS011;7921;43.586;1.408;2022-09-21T02:28:55;1.80;;;1.50;;
15643;SDS011;7921;43.586;1.408;2022-09-21T02:36:21;3.00;;;1.80;;
15643;SDS011;7921;43.586;1.408;2022-09-21T02:39:03;3.70;;;1.37;;
15643;SDS011;7921;43.586;1.408;2022-09-21T02:44:49;2.03;;;1.40;;
15643;SDS011;7921;43.586;1.408;2022-09-21T02:47:26;3.13;;;1.23;;
15643;SDS011;7921;43.586;1.408;2022-09-21T02:49:57;2.10;;;1.33;;
15643;SDS011;7921;43.586;1.408;2022-09-21T02:52:25;2.27;;;1.43;;
15643;SDS011;7921;43.586;1.408;2022-09-21T02:54:51;2.13;;;1.33;;
15643;SDS011;7921;43.586;1.408;2022-09-21T02:57:19;2.73;;;1.30;;
15643;SDS011;7921;43.586;1.408;2022-09-21T02:59:45;2.73;;;1.47;;
15643;SDS011;7921;43.586;1.408;2022-09-21T03:02:11;3.73;;;1.50;;
15643;SDS011;7921;43.586;1.408;2022-09-21T03:04:37;2.20;;;1.60;;
15643;SDS011;7921;43.586;1.408;2022-09-21T03:07:05;3.67;;;1.50;;
15643;SDS011;7921;43.586;1.408;2022-09-21T03:09:31;3.10;;;1.73;;
15643;SDS011;7921;43.586;1.408;2022-09-21T03:11:56;2.50;;;1.50;;
15643;SDS011;7921;43.586;1.408;2022-09-21T03:14:22;2.63;;;1.50;;
15643;SDS011;7921;43.586;1.408;2022-09-21T03:16:47;2.60;;;1.50;;
15643;SDS011;7921;43.586;1.408;2022-09-21T03:19:13;3.70;;;1.20;;
15643;SDS011;7921;43.586;1.408;2022-09-21T03:21:39;3.27;;;1.63;;
15643;SDS011;7921;43.586;1.408;2022-09-21T03:24:04;1.40;;;1.30;;
15643;SDS011;7921;43.586;1.408;2022-09-21T03:26:29;2.77;;;1.40;;
15643;SDS011;7921;43.586;1.408;2022-09-21T03:28:55;2.60;;;1.50;;
15643;SDS011;7921;43.586;1.408;2022-09-21T03:31:20;3.93;;;1.30;;
15643;SDS011;7921;43.586;1.408;2022-09-21T03:33:46;4.90;;;1.60;;
15643;SDS011;7921;43.586;1.408;2022-09-21T03:36:11;2.83;;;1.50;;
15643;SDS011;7921;43.586;1.408;2022-09-21T03:38:37;1.43;;;1.20;;
15643;SDS011;7921;43.586;1.408;2022-09-21T03:41:03;3.13;;;1.40;;
15643;SDS011;7921;43.586;1.408;2022-09-21T03:43:29;1.43;;;1.10;;
15643;SDS011;7921;43.586;1.408;2022-09-21T03:45:54;3.23;;;1.40;;
15643;SDS011;7921;43.586;1.408;2022-09-21T03:48:20;3.30;;;1.50;;
15643;SDS011;7921;43.586;1.408;2022-09-21T03:50:46;1.70;;;1.47;;
15643;SDS011;7921;43.586;1.408;2022-09-21T03:53:11;3.07;;;1.60;;
15643;SDS011;7921;43.586;1.408;2022-09-21T03:55:38;3.97;;;1.40;;
15643;SDS011;7921;43.586;1.408;2022-09-21T03:58:03;2.20;;;1.30;;
15643;SDS011;7921;43.586;1.408;2022-09-21T04:00:28;3.87;;;1.70;;
15643;SDS011;7921;43.586;1.408;2022-09-21T04:02:54;2.87;;;1.57;;
15643;SDS011;7921;43.586;1.408;2022-09-21T04:05:20;2.57;;;1.67;;
15643;SDS011;7921;43.586;1.408;2022-09-21T04:07:45;3.00;;;1.70;;
15643;SDS011;7921;43.586;1.408;2022-09-21T04:10:12;2.70;;;1.27;;
15643;SDS011;7921;43.586;1.408;2022-09-21T04:12:39;2.57;;;1.50;;
15643;SDS011;7921;43.586;1.408;2022-09-21T04:15:15;4.10;;;1.70;;
15643;SDS011;7921;43.586;1.408;2022-09-21T04:17:43;2.80;;;1.80;;
15643;SDS011;7921;43.586;1.408;2022-09-21T04:20:09;2.40;;;1.40;;
15643;SDS011;7921;43.586;1.408;2022-09-21T04:22:34;5.67;;;2.27;;
15643;SDS011;7921;43.586;1.408;2022-09-21T04:25:03;3.47;;;1.87;;
15643;SDS011;7921;43.586;1.408;2022-09-21T04:27:30;4.13;;;1.70;;
15643;SDS011;7921;43.586;1.408;2022-09-21T04:29:56;3.73;;;1.67;;
15643;SDS011;7921;43.586;1.408;2022-09-21T04:32:21;1.70;;;1.60;;
15643;SDS011;7921;43.586;1.408;2022-09-21T04:34:46;2.07;;;1.67;;
15643;SDS011;7921;43.586;1.408;2022-09-21T04:37:12;2.83;;;1.70;;
15643;SDS011;7921;43.586;1.408;2022-09-21T04:39:37;3.50;;;2.00;;
15643;SDS011;7921;43.586;1.408;2022-09-21T04:42:03;3.47;;;1.83;;
15643;SDS011;7921;43.586;1.408;2022-09-21T04:44:29;4.27;;;1.83;;
15643;SDS011;7921;43.586;1.408;2022-09-21T04:46:55;2.77;;;1.53;;
15643;SDS011;7921;43.586;1.408;2022-09-21T04:49:21;3.57;;;1.50;;
15643;SDS011;7921;43.586;1.408;2022-09-21T04:51:46;1.97;;;1.67;;
15643;SDS011;7921;43.586;1.408;2022-09-21T04:54:12;2.50;;;1.97;;
15643;SDS011;7921;43.586;1.408;2022-09-21T04:56:38;1.60;;;1.47;;
15643;SDS011;7921;43.586;1.408;2022-09-21T04:59:03;4.43;;;1.80;;
15643;SDS011;7921;43.586;1.408;2022-09-21T05:01:29;4.13;;;1.90;;
15643;SDS011;7921;43.586;1.408;2022-09-21T05:03:54;2.70;;;2.00;;
15643;SDS011;7921;43.586;1.408;2022-09-21T05:06:22;6.23;;;1.93;;
15643;SDS011;7921;43.586;1.408;2022-09-21T05:08:48;5.97;;;2.43;;
15643;SDS011;7921;43.586;1.408;2022-09-21T05:11:31;4.90;;;2.53;;
15643;SDS011;7921;43.586;1.408;2022-09-21T05:13:57;2.87;;;1.87;;
15643;SDS011;7921;43.586;1.408;2022-09-21T05:16:22;4.20;;;1.90;;
15643;SDS011;7921;43.586;1.408;2022-09-21T05:18:51;3.50;;;1.87;;
15643;SDS011;7921;43.586;1.408;2022-09-21T05:21:19;3.03;;;2.13;;
15643;SDS011;7921;43.586;1.408;2022-09-21T05:23:45;6.90;;;2.13;;
15643;SDS011;7921;43.586;1.408;2022-09-21T05:26:10;3.13;;;2.10;;
15643;SDS011;7921;43.586;1.408;2022-09-21T05:28:36;2.70;;;1.83;;
15643;SDS011;7921;43.586;1.408;2022-09-21T05:33:47;4.57;;;2.10;;
15643;SDS011;7921;43.586;1.408;2022-09-21T05:39:08;6.27;;;2.10;;
15643;SDS011;7921;43.586;1.408;2022-09-21T05:41:34;4.33;;;2.00;;
15643;SDS011;7921;43.586;1.408;2022-09-21T05:44:00;2.60;;;1.90;;
15643;SDS011;7921;43.586;1.408;2022-09-21T05:46:36;5.93;;;2.20;;
15643;SDS011;7921;43.586;1.408;2022-09-21T05:49:17;3.47;;;2.03;;
15643;SDS011;7921;43.586;1.408;2022-09-21T05:51:59;5.67;;;2.20;;
15643;SDS011;7921;43.586;1.408;2022-09-21T05:57:49;4.00;;;2.20;;
15643;SDS011;7921;43.586;1.408;2022-09-21T06:00:20;5.77;;;1.97;;
15643;SDS011;7921;43.586;1.408;2022-09-21T06:05:15;5.33;;;2.33;;
15643;SDS011;7921;43.586;1.408;2022-09-21T06:07:41;6.53;;;2.30;;
15643;SDS011;7921;43.586;1.408;2022-09-21T06:10:07;5.27;;;2.43;;
15643;SDS011;7921;43.586;1.408;2022-09-21T06:12:34;4.67;;;2.20;;
15643;SDS011;7921;43.586;1.408;2022-09-21T06:14:59;6.20;;;2.30;;
15643;SDS011;7921;43.586;1.408;2022-09-21T06:17:24;6.93;;;2.40;;
15643;SDS011;7921;43.586;1.408;2022-09-21T06:19:51;5.87;;;2.33;;
15643;SDS011;7921;43.586;1.408;2022-09-21T06:22:20;7.50;;;2.60;;
15643;SDS011;7921;43.586;1.408;2022-09-21T06:24:45;6.80;;;2.53;;
15643;SDS011;7921;43.586;1.408;2022-09-21T06:27:10;6.57;;;2.33;;
15643;SDS011;7921;43.586;1.408;2022-09-21T06:29:36;7.73;;;3.10;;
15643;SDS011;7921;43.586;1.408;2022-09-21T06:32:02;7.07;;;2.53;;
15643;SDS011;7921;43.586;1.408;2022-09-21T06:34:28;5.47;;;2.87;;
15643;SDS011;7921;43.586;1.408;2022-09-21T06:36:53;7.20;;;2.30;;
15643;SDS011;7921;43.586;1.408;2022-09-21T06:39:18;5.03;;;2.20;;
15643;SDS011;7921;43.586;1.408;2022-09-21T06:41:44;3.23;;;2.10;;
15643;SDS011;7921;43.586;1.408;2022-09-21T06:44:09;3.23;;;2.20;;
15643;SDS011;7921;43.586;1.408;2022-09-21T06:46:35;4.27;;;2.03;;
15643;SDS011;7921;43.586;1.408;2022-09-21T06:49:00;8.17;;;2.27;;
15643;SDS011;7921;43.586;1.408;2022-09-21T06:51:26;6.33;;;2.20;;
15643;SDS011;7921;43.586;1.408;2022-09-21T06:53:57;6.47;;;2.30;;
15643;SDS011;7921;43.586;1.408;2022-09-21T06:56:23;3.50;;;2.13;;
15643;SDS011;7921;43.586;1.408;2022-09-21T06:58:49;7.73;;;2.20;;
15643;SDS011;7921;43.586;1.408;2022-09-21T07:01:16;5.73;;;2.33;;
15643;SDS011;7921;43.586;1.408;2022-09-21T07:03:42;5.57;;;2.33;;
15643;SDS011;7921;43.586;1.408;2022-09-21T07:06:08;10.00;;;2.07;;
15643;SDS011;7921;43.586;1.408;2022-09-21T07:08:36;11.33;;;2.10;;
15643;SDS011;7921;43.586;1.408;2022-09-21T07:11:04;9.23;;;2.40;;
15643;SDS011;7921;43.586;1.408;2022-09-21T07:13:30;4.80;;;2.17;;
15643;SDS011;7921;43.586;1.408;2022-09-21T07:15:55;4.97;;;2.20;;
15643;SDS011;7921;43.586;1.408;2022-09-21T07:18:21;5.60;;;1.80;;
15643;SDS011;7921;43.586;1.408;2022-09-21T07:20:46;5.03;;;2.13;;
15643;SDS011;7921;43.586;1.408;2022-09-21T07:23:15;5.10;;;2.00;;
15643;SDS011;7921;43.586;1.408;2022-09-21T07:25:42;5.67;;;1.60;;
15643;SDS011;7921;43.586;1.408;2022-09-21T07:28:09;5.43;;;1.90;;
15643;SDS011;7921;43.586;1.408;2022-09-21T07:30:36;2.57;;;1.57;;
15643;SDS011;7921;43.586;1.408;2022-09-21T07:33:02;5.93;;;2.13;;
15643;SDS011;7921;43.586;1.408;2022-09-21T07:35:28;4.60;;;1.83;;
15643;SDS011;7921;43.586;1.408;2022-09-21T07:37:56;6.53;;;2.10;;
15643;SDS011;7921;43.586;1.408;2022-09-21T07:40:22;4.97;;;2.37;;
15643;SDS011;7921;43.586;1.408;2022-09-21T07:42:48;3.67;;;1.90;;
15643;SDS011;7921;43.586;1.408;2022-09-21T07:45:13;5.00;;;1.70;;
15643;SDS011;7921;43.586;1.408;2022-09-21T07:47:38;8.80;;;3.03;;
15643;SDS011;7921;43.586;1.408;2022-09-21T07:50:04;3.07;;;1.50;;
15643;SDS011;7921;43.586;1.408;2022-09-21T07:52:30;2.53;;;1.70;;
15643;SDS011;7921;43.586;1.408;2022-09-21T07:54:55;6.93;;;2.10;;
15643;SDS011;7921;43.586;1.408;2022-09-21T07:57:20;5.77;;;1.80;;
15643;SDS011;7921;43.586;1.408;2022-09-21T08:00:04;3.63;;;2.17;;
15643;SDS011;7921;43.586;1.408;2022-09-21T08:02:30;2.50;;;1.80;;
15643;SDS011;7921;43.586;1.408;2022-09-21T08:04:55;5.27;;;1.70;;
15643;SDS011;7921;43.586;1.408;2022-09-21T08:07:21;2.07;;;1.47;;
15643;SDS011;7921;43.586;1.408;2022-09-21T08:09:47;4.95;;;1.95;;
15643;SDS011;7921;43.586;1.408;2022-09-21T08:12:14;9.93;;;2.10;;
15643;SDS011;7921;43.586;1.408;2022-09-21T08:14:42;5.95;;;2.08;;
15643;SDS011;7921;43.586;1.408;2022-09-21T08:17:08;5.20;;;1.63;;
15643;SDS011;7921;43.586;1.408;2022-09-21T08:19:33;7.35;;;1.90;;
15643;SDS011;7921;43.586;1.408;2022-09-21T08:22:00;3.10;;;1.60;;
15643;SDS011;7921;43.586;1.408;2022-09-21T08:24:26;5.57;;;1.77;;
15643;SDS011;7921;43.586;1.408;2022-09-21T08:26:51;5.57;;;1.75;;
15643;SDS011;7921;43.586;1.408;2022-09-21T08:29:16;5.75;;;1.55;;
15643;SDS011;7921;43.586;1.408;2022-09-21T08:31:42;4.53;;;1.63;;
15643;SDS011;7921;43.586;1.408;2022-09-21T08:34:08;4.82;;;2.15;;
15643;SDS011;7921;43.586;1.408;2022-09-21T08:36:33;3.47;;;1.42;;
15643;SDS011;7921;43.586;1.408;2022-09-21T08:38:59;3.80;;;1.48;;
15643;SDS011;7921;43.586;1.408;2022-09-21T08:44:40;3.40;;;1.50;;
15643;SDS011;7921;43.586;1.408;2022-09-21T08:47:15;2.50;;;1.20;;
15643;SDS011;7921;43.586;1.408;2022-09-21T08:49:54;5.25;;;1.10;;
15643;SDS011;7921;43.586;1.408;2022-09-21T08:52:21;3.08;;;1.38;;
15643;SDS011;7921;43.586;1.408;2022-09-21T08:57:48;3.72;;;2.22;;
15643;SDS011;7921;43.586;1.408;2022-09-21T09:00:14;2.08;;;1.35;;
15643;SDS011;7921;43.586;1.408;2022-09-21T09:08:16;2.78;;;1.17;;
15643;SDS011;7921;43.586;1.408;2022-09-21T09:13:27;6.65;;;1.38;;
15643;SDS011;7921;43.586;1.408;2022-09-21T09:21:09;2.97;;;1.58;;
15643;SDS011;7921;43.586;1.408;2022-09-21T09:23:42;3.65;;;1.50;;
15643;SDS011;7921;43.586;1.408;2022-09-21T09:26:16;3.30;;;2.00;;
15643;SDS011;7921;43.586;1.408;2022-09-21T09:28:44;1.75;;;1.15;;
15643;SDS011;7921;43.586;1.408;2022-09-21T09:31:24;6.13;;;2.50;;
15643;SDS011;7921;43.586;1.408;2022-09-21T09:37:22;3.45;;;1.23;;
15643;SDS011;7921;43.586;1.408;2022-09-21T09:39:52;5.15;;;1.58;;
15643;SDS011;7921;43.586;1.408;2022-09-21T09:42:32;3.60;;;1.55;;
15643;SDS011;7921;43.586;1.408;2022-09-21T09:45:10;3.63;;;1.23;;
15643;SDS011;7921;43.586;1.408;2022-09-21T09:50:36;1.98;;;1.67;;
15643;SDS011;7921;43.586;1.408;2022-09-21T09:55:38;4.00;;;1.40;;
15643;SDS011;7921;43.586;1.408;2022-09-21T09:58:06;3.65;;;1.25;;
15643;SDS011;7921;43.586;1.408;2022-09-21T10:00:47;3.20;;;1.30;;
15643;SDS011;7921;43.586;1.408;2022-09-21T10:03:18;5.80;;;1.40;;
15643;SDS011;7921;43.586;1.408;2022-09-21T10:05:48;1.85;;;1.33;;
15643;SDS011;7921;43.586;1.408;2022-09-21T10:08:27;1.92;;;1.50;;
15643;SDS011;7921;43.586;1.408;2022-09-21T10:10:53;3.42;;;1.38;;
15643;SDS011;7921;43.586;1.408;2022-09-21T10:13:34;3.28;;;1.38;;
15643;SDS011;7921;43.586;1.408;2022-09-21T10:16:19;4.10;;;1.67;;
15643;SDS011;7921;43.586;1.408;2022-09-21T10:18:47;2.17;;;1.00;;
15643;SDS011;7921;43.586;1.408;2022-09-21T10:23:53;2.10;;;1.10;;
15643;SDS011;7921;43.586;1.408;2022-09-21T10:26:21;1.67;;;1.05;;
15643;SDS011;7921;43.586;1.408;2022-09-21T10:28:54;2.13;;;1.10;;
15643;SDS011;7921;43.586;1.408;2022-09-21T10:31:23;4.10;;;1.00;;
15643;SDS011;7921;43.586;1.408;2022-09-21T10:34:04;4.00;;;1.30;;
15643;SDS011;7921;43.586;1.408;2022-09-21T10:36:33;2.80;;;1.20;;
15643;SDS011;7921;43.586;1.408;2022-09-21T10:41:35;2.05;;;1.05;;
15643;SDS011;7921;43.586;1.408;2022-09-21T10:44:01;1.85;;;0.95;;
15643;SDS011;7921;43.586;1.408;2022-09-21T10:46:33;3.92;;;1.55;;
15643;SDS011;7921;43.586;1.408;2022-09-21T10:49:00;4.95;;;1.23;;
15643;SDS011;7921;43.586;1.408;2022-09-21T10:51:27;3.30;;;1.00;;
15643;SDS011;7921;43.586;1.408;2022-09-21T10:53:53;1.58;;;0.90;;
15643;SDS011;7921;43.586;1.408;2022-09-21T10:56:18;2.33;;;1.10;;
15643;SDS011;7921;43.586;1.408;2022-09-21T11:01:41;4.05;;;1.35;;
15643;SDS011;7921;43.586;1.408;2022-09-21T11:04:14;3.13;;;1.30;;
15643;SDS011;7921;43.586;1.408;2022-09-21T11:07:16;1.55;;;1.05;;
15643;SDS011;7921;43.586;1.408;2022-09-21T11:09:59;1.73;;;1.17;;
15643;SDS011;7921;43.586;1.408;2022-09-21T11:12:34;1.52;;;1.20;;
15643;SDS011;7921;43.586;1.408;2022-09-21T11:17:43;2.45;;;1.25;;
15643;SDS011;7921;43.586;1.408;2022-09-21T11:20:30;2.78;;;1.10;;
15643;SDS011;7921;43.586;1.408;2022-09-21T11:28:43;2.60;;;1.08;;
15643;SDS011;7921;43.586;1.408;2022-09-21T11:31:36;1.67;;;1.15;;
15643;SDS011;7921;43.586;1.408;2022-09-21T11:48:03;1.70;;;0.90;;
15643;SDS011;7921;43.586;1.408;2022-09-21T11:53:37;3.00;;;1.10;;
15643;SDS011;7921;43.586;1.408;2022-09-21T11:59:29;3.40;;;1.02;;
15643;SDS011;7921;43.586;1.408;2022-09-21T12:19:35;2.00;;;1.00;;
15643;SDS011;7921;43.586;1.408;2022-09-21T12:21:48;2.53;;;1.10;;
15643;SDS011;7921;43.586;1.408;2022-09-21T12:24:17;1.95;;;1.13;;
15643;SDS011;7921;43.586;1.408;2022-09-21T12:26:50;1.92;;;1.10;;
15643;SDS011;7921;43.586;1.408;2022-09-21T12:29:42;3.92;;;1.27;;
15643;SDS011;7921;43.586;1.408;2022-09-21T12:34:40;1.42;;;1.00;;
15643;SDS011;7921;43.586;1.408;2022-09-21T12:37:24;3.65;;;1.10;;
15643;SDS011;7921;43.586;1.408;2022-09-21T12:43:01;2.15;;;0.85;;
15643;SDS011;7921;43.586;1.408;2022-09-21T12:45:31;1.52;;;1.10;;
15643;SDS011;7921;43.586;1.408;2022-09-21T12:50:42;2.22;;;1.10;;
15643;SDS011;7921;43.586;1.408;2022-09-21T12:53:14;1.67;;;1.00;;
15643;SDS011;7921;43.586;1.408;2022-09-21T13:01:23;2.65;;;1.08;;
15643;SDS011;7921;43.586;1.408;2022-09-21T13:09:39;2.38;;;1.23;;
15643;SDS011;7921;43.586;1.408;2022-09-21T13:12:07;2.40;;;1.52;;
15643;SDS011;7921;43.586;1.408;2022-09-21T13:14:36;1.88;;;1.13;;
15643;SDS011;7921;43.586;1.408;2022-09-21T13:17:07;1.58;;;1.38;;
15643;SDS011;7921;43.586;1.408;2022-09-21T13:19:44;4.97;;;1.05;;
15643;SDS011;7921;43.586;1.408;2022-09-21T13:22:30;1.23;;;0.73;;
15643;SDS011;7921;43.586;1.408;2022-09-21T13:25:17;2.00;;;1.10;;
15643;SDS011;7921;43.586;1.408;2022-09-21T13:32:56;1.45;;;0.82;;
15643;SDS011;7921;43.586;1.408;2022-09-21T13:43:45;3.22;;;1.30;;
15643;SDS011;7921;43.586;1.408;2022-09-21T13:48:57;2.05;;;1.20;;
15643;SDS011;7921;43.586;1.408;2022-09-21T13:51:23;2.58;;;1.13;;
15643;SDS011;7921;43.586;1.408;2022-09-21T13:53:52;2.83;;;1.07;;
15643;SDS011;7921;43.586;1.408;2022-09-21T13:56:20;1.20;;;1.10;;
15643;SDS011;7921;43.586;1.408;2022-09-21T13:58:49;1.98;;;1.00;;
15643;SDS011;7921;43.586;1.408;2022-09-21T14:03:53;3.33;;;1.17;;
15643;SDS011;7921;43.586;1.408;2022-09-21T14:06:23;2.03;;;1.27;;
15643;SDS011;7921;43.586;1.408;2022-09-21T14:08:57;1.42;;;1.05;;
15643;SDS011;7921;43.586;1.408;2022-09-21T14:11:29;1.85;;;1.00;;
15643;SDS011;7921;43.586;1.408;2022-09-21T14:24:37;1.02;;;0.90;;
15643;SDS011;7921;43.586;1.408;2022-09-21T14:27:14;3.15;;;1.05;;
15643;SDS011;7921;43.586;1.408;2022-09-21T14:29:46;2.05;;;1.00;;
15643;SDS011;7921;43.586;1.408;2022-09-21T14:32:16;3.90;;;1.05;;
15643;SDS011;7921;43.586;1.408;2022-09-21T14:34:43;2.55;;;0.85;;
15643;SDS011;7921;43.586;1.408;2022-09-21T14:39:46;2.97;;;1.10;;
15643;SDS011;7921;43.586;1.408;2022-09-21T14:42:15;1.52;;;0.90;;
15643;SDS011;7921;43.586;1.408;2022-09-21T14:44:43;1.73;;;0.82;;
15643;SDS011;7921;43.586;1.408;2022-09-21T14:47:47;6.88;;;1.10;;
15643;SDS011;7921;43.586;1.408;2022-09-21T14:58:41;1.10;;;1.00;;
15643;SDS011;7921;43.586;1.408;2022-09-21T15:10:14;1.67;;;1.20;;
15643;SDS011;7921;43.586;1.408;2022-09-21T15:15:43;0.70;;;0.70;;
15643;SDS011;7921;43.586;1.408;2022-09-21T15:18:46;2.63;;;1.30;;
15643;SDS011;7921;43.586;1.408;2022-09-21T15:23:50;3.08;;;0.90;;
15643;SDS011;7921;43.586;1.408;2022-09-21T15:26:20;1.20;;;1.10;;
15643;SDS011;7921;43.586;1.408;2022-09-21T15:28:54;0.82;;;0.82;;
15643;SDS011;7921;43.586;1.408;2022-09-21T15:31:21;0.90;;;0.77;;
15643;SDS011;7921;43.586;1.408;2022-09-21T15:33:46;1.42;;;1.10;;
15643;SDS011;7921;43.586;1.408;2022-09-21T15:36:24;0.95;;;0.82;;
15643;SDS011;7921;43.586;1.408;2022-09-21T15:38:51;4.32;;;0.90;;
15643;SDS011;7921;43.586;1.408;2022-09-21T15:41:39;2.55;;;1.00;;
15643;SDS011;7921;43.586;1.408;2022-09-21T15:44:13;1.70;;;1.00;;
15643;SDS011;7921;43.586;1.408;2022-09-21T15:46:41;4.93;;;1.00;;
15643;SDS011;7921;43.586;1.408;2022-09-21T15:49:14;3.05;;;1.13;;
15643;SDS011;7921;43.586;1.408;2022-09-21T15:51:45;2.42;;;0.90;;
15643;SDS011;7921;43.586;1.408;2022-09-21T15:56:49;1.40;;;0.90;;
15643;SDS011;7921;43.586;1.408;2022-09-21T15:59:18;3.58;;;0.90;;
15643;SDS011;7921;43.586;1.408;2022-09-21T16:01:45;2.15;;;1.00;;
15643;SDS011;7921;43.586;1.408;2022-09-21T16:04:16;1.35;;;0.88;;
15643;SDS011;7921;43.586;1.408;2022-09-21T16:06:55;1.98;;;0.80;;
15643;SDS011;7921;43.586;1.408;2022-09-21T16:11:55;1.33;;;0.90;;
15643;SDS011;7921;43.586;1.408;2022-09-21T16:14:21;1.75;;;0.93;;
15643;SDS011;7921;43.586;1.408;2022-09-21T16:17:21;2.50;;;0.98;;
15643;SDS011;7921;43.586;1.408;2022-09-21T16:22:27;1.00;;;0.90;;
15643;SDS011;7921;43.586;1.408;2022-09-21T16:24:55;2.22;;;1.05;;
15643;SDS011;7921;43.586;1.408;2022-09-21T16:27:22;4.15;;;1.17;;
15643;SDS011;7921;43.586;1.408;2022-09-21T16:29:50;1.37;;;0.90;;
15643;SDS011;7921;43.586;1.408;2022-09-21T16:34:41;2.45;;;0.80;;
15643;SDS011;7921;43.586;1.408;2022-09-21T16:39:48;1.45;;;0.88;;
15643;SDS011;7921;43.586;1.408;2022-09-21T16:42:14;1.27;;;0.85;;
15643;SDS011;7921;43.586;1.408;2022-09-21T16:44:40;1.50;;;0.90;;
15643;SDS011;7921;43.586;1.408;2022-09-21T16:49:39;4.35;;;1.65;;
15643;SDS011;7921;43.586;1.408;2022-09-21T16:52:05;1.73;;;1.10;;
15643;SDS011;7921;43.586;1.408;2022-09-21T16:54:31;1.65;;;0.88;;
15643;SDS011;7921;43.586;1.408;2022-09-21T16:56:59;1.08;;;0.98;;
15643;SDS011;7921;43.586;1.408;2022-09-21T16:59:26;1.42;;;1.00;;
15643;SDS011;7921;43.586;1.408;2022-09-21T17:01:53;1.17;;;0.90;;
15643;SDS011;7921;43.586;1.408;2022-09-21T17:04:20;4.88;;;0.90;;
15643;SDS011;7921;43.586;1.408;2022-09-21T17:06:47;2.67;;;1.65;;
15643;SDS011;7921;43.586;1.408;2022-09-21T17:09:28;2.22;;;1.00;;
15643;SDS011;7921;43.586;1.408;2022-09-21T17:11:55;1.85;;;0.93;;
15643;SDS011;7921;43.586;1.408;2022-09-21T17:14:24;4.70;;;1.00;;
15643;SDS011;7921;43.586;1.408;2022-09-21T17:16:53;1.10;;;0.80;;
15643;SDS011;7921;43.586;1.408;2022-09-21T17:19:20;2.92;;;1.08;;
15643;SDS011;7921;43.586;1.408;2022-09-21T17:21:46;3.25;;;1.30;;
15643;SDS011;7921;43.586;1.408;2022-09-21T17:24:12;3.88;;;1.10;;
15643;SDS011;7921;43.586;1.408;2022-09-21T17:26:38;2.22;;;1.00;;
15643;SDS011;7921;43.586;1.408;2022-09-21T17:29:08;1.77;;;1.20;;
15643;SDS011;7921;43.586;1.408;2022-09-21T17:31:40;2.22;;;0.95;;
15643;SDS011;7921;43.586;1.408;2022-09-21T17:34:09;2.50;;;1.42;;
15643;SDS011;7921;43.586;1.408;2022-09-21T17:36:36;3.08;;;1.30;;
15643;SDS011;7921;43.586;1.408;2022-09-21T17:39:01;4.10;;;1.25;;
15643;SDS011;7921;43.586;1.408;2022-09-21T17:41:28;2.05;;;1.13;;
15643;SDS011;7921;43.586;1.408;2022-09-21T17:47:14;1.95;;;1.23;;
15643;SDS011;7921;43.586;1.408;2022-09-21T17:49:30;3.75;;;1.48;;
15643;SDS011;7921;43.586;1.408;2022-09-21T17:51:56;9.30;;;1.67;;
15643;SDS011;7921;43.586;1.408;2022-09-21T17:54:40;6.22;;;1.95;;
15643;SDS011;7921;43.586;1.408;2022-09-21T17:57:10;5.78;;;2.17;;
15643;SDS011;7921;43.586;1.408;2022-09-21T17:59:42;6.05;;;1.85;;
15643;SDS011;7921;43.586;1.408;2022-09-21T18:02:22;5.93;;;1.58;;
15643;SDS011;7921;43.586;1.408;2022-09-21T18:04:49;3.05;;;1.35;;
15643;SDS011;7921;43.586;1.408;2022-09-21T18:07:18;14.27;;;2.38;;
15643;SDS011;7921;43.586;1.408;2022-09-21T18:09:43;12.23;;;2.20;;
15643;SDS011;7921;43.586;1.408;2022-09-21T18:14:53;14.55;;;2.60;;
15643;SDS011;7921;43.586;1.408;2022-09-21T18:23:01;16.17;;;2.35;;
15643;SDS011;7921;43.586;1.408;2022-09-21T18:25:35;11.90;;;2.50;;
15643;SDS011;7921;43.586;1.408;2022-09-21T18:28:19;7.90;;;2.03;;
15643;SDS011;7921;43.586;1.408;2022-09-21T18:30:55;4.78;;;1.65;;
15643;SDS011;7921;43.586;1.408;2022-09-21T18:39:12;5.32;;;2.25;;
15643;SDS011;7921;43.586;1.408;2022-09-21T18:41:59;6.78;;;2.35;;
15643;SDS011;7921;43.586;1.408;2022-09-21T18:44:35;6.15;;;2.13;;
15643;SDS011;7921;43.586;1.408;2022-09-21T18:47:19;13.25;;;2.05;;
15643;SDS011;7921;43.586;1.408;2022-09-21T18:50:09;7.30;;;2.20;;
15643;SDS011;7921;43.586;1.408;2022-09-21T18:55:35;6.30;;;2.67;;
15643;SDS011;7921;43.586;1.408;2022-09-21T18:58:01;6.80;;;2.20;;
15643;SDS011;7921;43.586;1.408;2022-09-21T19:00:27;11.68;;;3.03;;
15643;SDS011;7921;43.586;1.408;2022-09-21T19:03:10;7.15;;;2.88;;
15643;SDS011;7921;43.586;1.408;2022-09-21T19:05:39;6.88;;;3.00;;
15643;SDS011;7921;43.586;1.408;2022-09-21T19:29:44;20.27;;;3.90;;
15643;SDS011;7921;43.586;1.408;2022-09-21T19:35:22;15.95;;;4.03;;
15643;SDS011;7921;43.586;1.408;2022-09-21T19:37:48;17.13;;;3.75;;
15643;SDS011;7921;43.586;1.408;2022-09-21T19:40:16;24.00;;;3.97;;
15643;SDS011;7921;43.586;1.408;2022-09-21T19:45:43;10.30;;;3.80;;